Geff, IL (62842)

10:20 AM CDT on August 30, 2016 (GMT -0500)
Uptown | | Change Station

Elev 441 ft 38.38 °N, 88.36 °W | Updated 23 seconds ago

Clear
Clear
81.9 °F
Feels Like 88 °F
N
0.0
Wind Variable Wind from SW
Gusts 3.0 mph

Today
High -- | Low -- °F
--% Chance of Precip.
Yesterday
High -- | Low -- °F
Precip. -- in
Pressure 30.13 in
Visibility -9999.0 miles
Clouds Clear
Heat Index 88 °F
Dew Point 75 °F
Humidity 79%
Rainfall 0.00 in
Snow Depth Not available.
6:21 AM 7:25 PM
Waning Crescent, 3% visible
METAR KFWC 301515Z AUTO 00000KT CLR 29/24 A3013 RMK AO1 LTG DSNT NW T02900235 PWINO
Pressure 30.13 in
Visibility -9999.0 miles
Clouds Clear
Heat Index 88 °F
Dew Point 75 °F
Humidity 79%
Rainfall 0.00 in
Snow Depth Not available.
6:21 AM 7:25 PM
Waning Crescent, 3% visible
METAR KFWC 301515Z AUTO 00000KT CLR 29/24 A3013 RMK AO1 LTG DSNT NW T02900235 PWINO

10-Day Weather Forecast

Almanac

Astronomy

Aug. 30, 2016 Rise Set
Actual Time
Civil Twilight
Nautical Twilight
Astronomical Twilight
Moon
Length of Visible Light
Length of Day
Tomorrow will be .
, % of the Moon is Illuminated

Today's Extremes

State Highs State Lows

Community

WunderPhotos

Upload Photos

1,935,855 photos uploaded!

WunderBlog® & News

Nearby

Air Quality

  Air Quality AQ Index Pollutant
Not available.

Snow Depth

Station Depth Elevation

Earthquake Activity

City Distance Mag. Time & Date
Minimum magnitude displayed is 2.5.

Coastal Water Temperatures

Place Temperature

Stations

Nearby Weather Stations

Station Location Temp. Windchill Dew Point Humidity Wind Precip. Elev Updated Type
                   

Watches & Warnings

There are currently no watches in effect.